Pagrindinis puslapis
METAR-TAF:

METAR-TAF

Oro uostai :

Uagadugu oro uostas

Uagadugu, Burkina Fasas

platuma: 12-21N, ilguma: 001-31W, Aukštis: 316 m

Dabartinis oras

Ataskaita buvo paskelbta 1 valandą ir 6 minutes, ne 21:00 UTC
Vėjas 3 kt iš Šiaurės/Šiaurės Vakarų
Temperatūra 27°C
Drėgmė 79%
Slėgis 1011 hPa
Matomumas 10 km arba daugiau
Mažai debesys ne aukštis 2100 ft

METAR: DFFD 162100Z 34003KT 9999 FEW021 27/23 Q1011 NOSIG

Laikas: 22:06 (22:06 UTC)

Prognozė

Ataskaita buvo paskelbta 5 valandos ir 6 minutes, ne 17:00 UTC
Prognozė galioja nuo 16 metu 18 UTC su 17 metu 18 UTC
Vėjas 8 kt iš Pietų/Pietvakarių
Matomumas 10 km arba daugiau
Mažai debesys ne aukštis 1600 ft
Laikinai
nuo 16 metu 20 UTC su 17 metu 06 UTC
Vėjas 25 kt iš Rytų su gūsio iki 40 kt
Matomumas: 2500 m
Išsisklaidę debesys ne aukštis 1600 ft
Išsisklaidę debesys ne aukštis 3000 ft, Liūtiniai kamuoliniai debesys.
škvalai, perkūnija, lietus

TAF: DFFD 161700Z 1618/1718 20008KT 9999 FEW016 TEMPO 1620/1706 10025G40KT 2500 SQ TSRA SCT016 SCT030CB

Orai ataskaitas ir orų prognozės (METAR, TAF).

turimą stotys yra geltonos ir raudonos taškus žemėlapyje.

Perkelti pele per norėdami pamatyti stoties vardą.

Tada spustelėkite, norėdami matyti oro stebėjimo ir prognozės.

Norėdami pakeisti žemėlapį: spustelėkite ant žalios mygtukų su juodo kryžiaus žemyn,; žalią mygtuką su brūkšneliu, jei norite nutolinti; arba žalių rodyklių gretimoms žemėlapius.


METAR-TAF: